sensor_id;sensor_type;location;lat;lon;timestamp;P1;durP1;ratioP1;P2;durP2;ratioP2
42030;SDS011;27709;52.036;5.906;2024-01-15T00:00:00;3.28;;;0.75;;
42030;SDS011;27709;52.036;5.906;2024-01-15T00:02:25;4.38;;;0.80;;
42030;SDS011;27709;52.036;5.906;2024-01-15T00:04:51;5.72;;;0.85;;
42030;SDS011;27709;52.036;5.906;2024-01-15T00:07:16;5.80;;;0.88;;
42030;SDS011;27709;52.036;5.906;2024-01-15T00:09:42;3.95;;;0.60;;
42030;SDS011;27709;52.036;5.906;2024-01-15T00:12:08;3.53;;;0.70;;
42030;SDS011;27709;52.036;5.906;2024-01-15T00:14:33;5.15;;;0.95;;
42030;SDS011;27709;52.036;5.906;2024-01-15T00:16:59;4.43;;;0.73;;
42030;SDS011;27709;52.036;5.906;2024-01-15T00:19:24;4.75;;;0.65;;
42030;SDS011;27709;52.036;5.906;2024-01-15T00:21:50;3.30;;;0.50;;
42030;SDS011;27709;52.036;5.906;2024-01-15T00:24:15;4.07;;;1.00;;
42030;SDS011;27709;52.036;5.906;2024-01-15T00:26:41;5.63;;;0.80;;
42030;SDS011;27709;52.036;5.906;2024-01-15T00:29:07;6.55;;;0.75;;
42030;SDS011;27709;52.036;5.906;2024-01-15T00:31:33;5.30;;;0.75;;
42030;SDS011;27709;52.036;5.906;2024-01-15T00:33:59;4.63;;;0.52;;
42030;SDS011;27709;52.036;5.906;2024-01-15T00:36:25;5.22;;;0.60;;
42030;SDS011;27709;52.036;5.906;2024-01-15T00:38:50;8.05;;;0.70;;
42030;SDS011;27709;52.036;5.906;2024-01-15T00:41:16;4.93;;;0.80;;
42030;SDS011;27709;52.036;5.906;2024-01-15T00:43:43;7.15;;;0.93;;
42030;SDS011;27709;52.036;5.906;2024-01-15T00:46:09;7.65;;;0.77;;
42030;SDS011;27709;52.036;5.906;2024-01-15T00:48:35;5.22;;;0.70;;
42030;SDS011;27709;52.036;5.906;2024-01-15T00:51:01;6.22;;;0.95;;
42030;SDS011;27709;52.036;5.906;2024-01-15T00:53:26;6.18;;;0.93;;
42030;SDS011;27709;52.036;5.906;2024-01-15T00:55:52;8.57;;;0.88;;
42030;SDS011;27709;52.036;5.906;2024-01-15T00:58:18;4.30;;;0.70;;
42030;SDS011;27709;52.036;5.906;2024-01-15T01:00:44;5.22;;;0.80;;
42030;SDS011;27709;52.036;5.906;2024-01-15T01:03:09;5.30;;;0.90;;
42030;SDS011;27709;52.036;5.906;2024-01-15T01:05:35;7.65;;;0.93;;
42030;SDS011;27709;52.036;5.906;2024-01-15T01:08:01;5.82;;;0.75;;
42030;SDS011;27709;52.036;5.906;2024-01-15T01:10:27;4.18;;;1.10;;
42030;SDS011;27709;52.036;5.906;2024-01-15T01:12:53;5.18;;;0.90;;
42030;SDS011;27709;52.036;5.906;2024-01-15T01:15:18;7.78;;;0.70;;
42030;SDS011;27709;52.036;5.906;2024-01-15T01:17:45;6.15;;;0.80;;
42030;SDS011;27709;52.036;5.906;2024-01-15T01:20:11;4.95;;;0.82;;
42030;SDS011;27709;52.036;5.906;2024-01-15T01:22:37;6.50;;;0.82;;
42030;SDS011;27709;52.036;5.906;2024-01-15T01:25:02;7.40;;;0.75;;
42030;SDS011;27709;52.036;5.906;2024-01-15T01:27:28;4.82;;;0.85;;
42030;SDS011;27709;52.036;5.906;2024-01-15T01:29:54;8.00;;;1.15;;
42030;SDS011;27709;52.036;5.906;2024-01-15T01:32:19;9.60;;;0.90;;
42030;SDS011;27709;52.036;5.906;2024-01-15T01:34:45;6.65;;;0.73;;
42030;SDS011;27709;52.036;5.906;2024-01-15T01:37:11;8.43;;;0.60;;
42030;SDS011;27709;52.036;5.906;2024-01-15T01:39:40;6.85;;;1.35;;
42030;SDS011;27709;52.036;5.906;2024-01-15T01:42:06;12.63;;;1.00;;
42030;SDS011;27709;52.036;5.906;2024-01-15T01:44:32;6.45;;;1.02;;
42030;SDS011;27709;52.036;5.906;2024-01-15T01:46:58;8.35;;;0.90;;
42030;SDS011;27709;52.036;5.906;2024-01-15T01:49:25;6.45;;;0.80;;
42030;SDS011;27709;52.036;5.906;2024-01-15T01:51:52;6.65;;;0.80;;
42030;SDS011;27709;52.036;5.906;2024-01-15T01:54:21;6.88;;;0.55;;
42030;SDS011;27709;52.036;5.906;2024-01-15T01:56:47;7.60;;;0.93;;
42030;SDS011;27709;52.036;5.906;2024-01-15T01:59:14;8.95;;;0.88;;
42030;SDS011;27709;52.036;5.906;2024-01-15T02:01:39;5.38;;;0.90;;
42030;SDS011;27709;52.036;5.906;2024-01-15T02:04:06;7.82;;;1.00;;
42030;SDS011;27709;52.036;5.906;2024-01-15T02:06:33;9.50;;;0.82;;
42030;SDS011;27709;52.036;5.906;2024-01-15T02:08:59;5.75;;;0.80;;
42030;SDS011;27709;52.036;5.906;2024-01-15T02:11:24;7.57;;;1.10;;
42030;SDS011;27709;52.036;5.906;2024-01-15T02:13:50;8.48;;;1.15;;
42030;SDS011;27709;52.036;5.906;2024-01-15T02:16:16;7.82;;;0.95;;
42030;SDS011;27709;52.036;5.906;2024-01-15T02:18:43;5.68;;;0.88;;
42030;SDS011;27709;52.036;5.906;2024-01-15T02:21:09;8.52;;;1.25;;
42030;SDS011;27709;52.036;5.906;2024-01-15T02:23:35;8.90;;;1.00;;
42030;SDS011;27709;52.036;5.906;2024-01-15T02:26:01;10.45;;;1.15;;
42030;SDS011;27709;52.036;5.906;2024-01-15T02:28:27;8.43;;;1.00;;
42030;SDS011;27709;52.036;5.906;2024-01-15T02:30:53;8.18;;;1.00;;
42030;SDS011;27709;52.036;5.906;2024-01-15T02:33:19;7.18;;;1.00;;
42030;SDS011;27709;52.036;5.906;2024-01-15T02:35:44;6.30;;;0.75;;
42030;SDS011;27709;52.036;5.906;2024-01-15T02:38:11;6.80;;;1.30;;
42030;SDS011;27709;52.036;5.906;2024-01-15T02:40:37;8.05;;;1.13;;
42030;SDS011;27709;52.036;5.906;2024-01-15T02:43:03;5.75;;;0.80;;
42030;SDS011;27709;52.036;5.906;2024-01-15T02:45:29;8.60;;;1.38;;
42030;SDS011;27709;52.036;5.906;2024-01-15T02:47:54;8.68;;;0.98;;
42030;SDS011;27709;52.036;5.906;2024-01-15T02:50:20;8.35;;;0.90;;
42030;SDS011;27709;52.036;5.906;2024-01-15T02:52:46;6.93;;;1.00;;
42030;SDS011;27709;52.036;5.906;2024-01-15T02:55:12;10.38;;;1.48;;
42030;SDS011;27709;52.036;5.906;2024-01-15T02:57:37;10.40;;;1.00;;
42030;SDS011;27709;52.036;5.906;2024-01-15T03:00:03;8.75;;;1.20;;
42030;SDS011;27709;52.036;5.906;2024-01-15T03:02:29;4.38;;;0.73;;
42030;SDS011;27709;52.036;5.906;2024-01-15T03:04:57;7.13;;;1.17;;
42030;SDS011;27709;52.036;5.906;2024-01-15T03:07:23;7.53;;;0.77;;
42030;SDS011;27709;52.036;5.906;2024-01-15T03:09:49;6.68;;;1.10;;
42030;SDS011;27709;52.036;5.906;2024-01-15T03:12:16;8.05;;;0.93;;
42030;SDS011;27709;52.036;5.906;2024-01-15T03:14:43;5.20;;;0.80;;
42030;SDS011;27709;52.036;5.906;2024-01-15T03:17:08;6.32;;;0.70;;
42030;SDS011;27709;52.036;5.906;2024-01-15T03:19:35;8.70;;;0.77;;
42030;SDS011;27709;52.036;5.906;2024-01-15T03:22:00;3.22;;;0.50;;
42030;SDS011;27709;52.036;5.906;2024-01-15T03:24:27;6.88;;;0.68;;
42030;SDS011;27709;52.036;5.906;2024-01-15T03:26:53;4.20;;;0.60;;
42030;SDS011;27709;52.036;5.906;2024-01-15T03:29:18;3.50;;;0.60;;
42030;SDS011;27709;52.036;5.906;2024-01-15T03:31:44;5.47;;;0.90;;
42030;SDS011;27709;52.036;5.906;2024-01-15T03:34:10;6.93;;;0.77;;
42030;SDS011;27709;52.036;5.906;2024-01-15T03:36:38;6.03;;;0.73;;
42030;SDS011;27709;52.036;5.906;2024-01-15T03:39:03;6.70;;;0.70;;
42030;SDS011;27709;52.036;5.906;2024-01-15T03:41:29;7.50;;;0.90;;
42030;SDS011;27709;52.036;5.906;2024-01-15T03:43:54;7.03;;;0.70;;
42030;SDS011;27709;52.036;5.906;2024-01-15T03:46:20;6.80;;;0.52;;
42030;SDS011;27709;52.036;5.906;2024-01-15T03:48:45;6.35;;;0.68;;
42030;SDS011;27709;52.036;5.906;2024-01-15T03:51:11;3.90;;;0.50;;
42030;SDS011;27709;52.036;5.906;2024-01-15T03:53:37;5.72;;;0.55;;
42030;SDS011;27709;52.036;5.906;2024-01-15T03:56:06;6.35;;;0.60;;
42030;SDS011;27709;52.036;5.906;2024-01-15T03:58:31;5.72;;;0.63;;
42030;SDS011;27709;52.036;5.906;2024-01-15T04:00:57;6.85;;;0.68;;
42030;SDS011;27709;52.036;5.906;2024-01-15T04:03:22;6.82;;;0.70;;
42030;SDS011;27709;52.036;5.906;2024-01-15T04:05:48;6.95;;;0.60;;
42030;SDS011;27709;52.036;5.906;2024-01-15T04:08:14;3.53;;;0.40;;
42030;SDS011;27709;52.036;5.906;2024-01-15T04:10:39;4.00;;;0.63;;
42030;SDS011;27709;52.036;5.906;2024-01-15T04:13:05;2.92;;;0.47;;
42030;SDS011;27709;52.036;5.906;2024-01-15T04:15:30;5.90;;;0.70;;
42030;SDS011;27709;52.036;5.906;2024-01-15T04:17:56;6.68;;;0.73;;
42030;SDS011;27709;52.036;5.906;2024-01-15T04:20:21;4.43;;;0.57;;
42030;SDS011;27709;52.036;5.906;2024-01-15T04:22:47;6.97;;;0.60;;
42030;SDS011;27709;52.036;5.906;2024-01-15T04:25:13;3.92;;;0.50;;
42030;SDS011;27709;52.036;5.906;2024-01-15T04:27:38;8.25;;;0.60;;
42030;SDS011;27709;52.036;5.906;2024-01-15T04:30:04;5.95;;;0.55;;
42030;SDS011;27709;52.036;5.906;2024-01-15T04:32:30;3.33;;;0.70;;
42030;SDS011;27709;52.036;5.906;2024-01-15T04:34:55;6.15;;;0.73;;
42030;SDS011;27709;52.036;5.906;2024-01-15T04:37:21;8.50;;;0.65;;
42030;SDS011;27709;52.036;5.906;2024-01-15T04:39:47;6.25;;;0.52;;
42030;SDS011;27709;52.036;5.906;2024-01-15T04:42:12;9.05;;;0.70;;
42030;SDS011;27709;52.036;5.906;2024-01-15T04:44:38;4.30;;;0.85;;
42030;SDS011;27709;52.036;5.906;2024-01-15T04:47:04;5.82;;;0.60;;
42030;SDS011;27709;52.036;5.906;2024-01-15T04:49:29;6.35;;;0.82;;
42030;SDS011;27709;52.036;5.906;2024-01-15T04:51:55;8.13;;;0.98;;
42030;SDS011;27709;52.036;5.906;2024-01-15T04:54:20;5.25;;;0.70;;
42030;SDS011;27709;52.036;5.906;2024-01-15T04:56:46;7.03;;;0.70;;
42030;SDS011;27709;52.036;5.906;2024-01-15T04:59:12;5.78;;;0.68;;
42030;SDS011;27709;52.036;5.906;2024-01-15T05:01:39;6.38;;;0.90;;
42030;SDS011;27709;52.036;5.906;2024-01-15T05:04:05;6.47;;;0.85;;
42030;SDS011;27709;52.036;5.906;2024-01-15T05:06:30;6.18;;;0.70;;
42030;SDS011;27709;52.036;5.906;2024-01-15T05:08:56;5.90;;;0.80;;
42030;SDS011;27709;52.036;5.906;2024-01-15T05:11:22;5.82;;;0.80;;
42030;SDS011;27709;52.036;5.906;2024-01-15T05:13:48;3.90;;;0.70;;
42030;SDS011;27709;52.036;5.906;2024-01-15T05:16:13;4.78;;;0.70;;
42030;SDS011;27709;52.036;5.906;2024-01-15T05:18:39;4.88;;;0.60;;
42030;SDS011;27709;52.036;5.906;2024-01-15T05:21:04;10.45;;;0.90;;
42030;SDS011;27709;52.036;5.906;2024-01-15T05:23:31;6.82;;;0.90;;
42030;SDS011;27709;52.036;5.906;2024-01-15T05:25:57;6.32;;;0.90;;
42030;SDS011;27709;52.036;5.906;2024-01-15T05:28:23;8.40;;;0.82;;
42030;SDS011;27709;52.036;5.906;2024-01-15T05:30:48;7.43;;;0.95;;
42030;SDS011;27709;52.036;5.906;2024-01-15T05:33:15;9.38;;;0.70;;
42030;SDS011;27709;52.036;5.906;2024-01-15T05:35:41;8.18;;;0.80;;
42030;SDS011;27709;52.036;5.906;2024-01-15T05:38:07;7.25;;;0.70;;
42030;SDS011;27709;52.036;5.906;2024-01-15T05:40:32;6.20;;;1.02;;
42030;SDS011;27709;52.036;5.906;2024-01-15T05:42:58;4.45;;;0.80;;
42030;SDS011;27709;52.036;5.906;2024-01-15T05:45:25;6.78;;;0.70;;
42030;SDS011;27709;52.036;5.906;2024-01-15T05:47:51;7.60;;;1.25;;
42030;SDS011;27709;52.036;5.906;2024-01-15T05:50:17;7.43;;;1.00;;
42030;SDS011;27709;52.036;5.906;2024-01-15T05:52:43;7.60;;;0.98;;
42030;SDS011;27709;52.036;5.906;2024-01-15T05:55:08;6.07;;;0.85;;
42030;SDS011;27709;52.036;5.906;2024-01-15T05:57:34;6.32;;;0.93;;
42030;SDS011;27709;52.036;5.906;2024-01-15T06:00:01;6.45;;;0.95;;
42030;SDS011;27709;52.036;5.906;2024-01-15T06:02:27;5.80;;;0.88;;
42030;SDS011;27709;52.036;5.906;2024-01-15T06:04:53;8.55;;;0.90;;
42030;SDS011;27709;52.036;5.906;2024-01-15T06:07:18;3.50;;;0.70;;
42030;SDS011;27709;52.036;5.906;2024-01-15T06:09:44;7.05;;;0.70;;
42030;SDS011;27709;52.036;5.906;2024-01-15T06:12:10;7.13;;;0.90;;
42030;SDS011;27709;52.036;5.906;2024-01-15T06:14:35;7.30;;;0.90;;
42030;SDS011;27709;52.036;5.906;2024-01-15T06:17:01;3.97;;;0.80;;
42030;SDS011;27709;52.036;5.906;2024-01-15T06:19:26;3.72;;;0.90;;
42030;SDS011;27709;52.036;5.906;2024-01-15T06:21:52;6.25;;;1.08;;
42030;SDS011;27709;52.036;5.906;2024-01-15T06:24:17;7.63;;;1.45;;
42030;SDS011;27709;52.036;5.906;2024-01-15T06:26:46;4.80;;;1.48;;
42030;SDS011;27709;52.036;5.906;2024-01-15T06:29:12;6.40;;;1.42;;
42030;SDS011;27709;52.036;5.906;2024-01-15T06:31:37;4.93;;;1.30;;
42030;SDS011;27709;52.036;5.906;2024-01-15T06:34:03;6.05;;;1.17;;
42030;SDS011;27709;52.036;5.906;2024-01-15T06:36:28;3.97;;;1.30;;
42030;SDS011;27709;52.036;5.906;2024-01-15T06:38:54;8.57;;;1.58;;
42030;SDS011;27709;52.036;5.906;2024-01-15T06:41:20;6.55;;;1.25;;
42030;SDS011;27709;52.036;5.906;2024-01-15T06:43:46;4.28;;;1.27;;
42030;SDS011;27709;52.036;5.906;2024-01-15T06:46:12;5.22;;;1.27;;
42030;SDS011;27709;52.036;5.906;2024-01-15T06:48:38;5.40;;;1.70;;
42030;SDS011;27709;52.036;5.906;2024-01-15T06:51:03;5.88;;;1.20;;
42030;SDS011;27709;52.036;5.906;2024-01-15T06:53:29;4.95;;;1.80;;
42030;SDS011;27709;52.036;5.906;2024-01-15T06:55:55;5.88;;;1.55;;
42030;SDS011;27709;52.036;5.906;2024-01-15T06:58:20;4.13;;;1.30;;
42030;SDS011;27709;52.036;5.906;2024-01-15T07:00:46;4.47;;;1.40;;
42030;SDS011;27709;52.036;5.906;2024-01-15T07:03:11;3.67;;;1.40;;
42030;SDS011;27709;52.036;5.906;2024-01-15T07:05:37;3.88;;;1.42;;
42030;SDS011;27709;52.036;5.906;2024-01-15T07:08:03;7.30;;;1.67;;
42030;SDS011;27709;52.036;5.906;2024-01-15T07:10:29;4.47;;;1.80;;
42030;SDS011;27709;52.036;5.906;2024-01-15T07:12:55;4.40;;;1.65;;
42030;SDS011;27709;52.036;5.906;2024-01-15T07:15:20;2.97;;;1.50;;
42030;SDS011;27709;52.036;5.906;2024-01-15T07:17:46;4.93;;;1.80;;
42030;SDS011;27709;52.036;5.906;2024-01-15T07:20:12;3.92;;;1.85;;
42030;SDS011;27709;52.036;5.906;2024-01-15T07:22:37;3.55;;;1.75;;
42030;SDS011;27709;52.036;5.906;2024-01-15T07:25:03;5.72;;;1.70;;
42030;SDS011;27709;52.036;5.906;2024-01-15T07:27:30;5.30;;;1.80;;
42030;SDS011;27709;52.036;5.906;2024-01-15T07:29:56;4.93;;;1.90;;
42030;SDS011;27709;52.036;5.906;2024-01-15T07:32:22;5.05;;;2.08;;
42030;SDS011;27709;52.036;5.906;2024-01-15T07:34:47;3.42;;;1.92;;
42030;SDS011;27709;52.036;5.906;2024-01-15T07:37:13;4.93;;;2.42;;
42030;SDS011;27709;52.036;5.906;2024-01-15T07:39:39;5.25;;;2.72;;
42030;SDS011;27709;52.036;5.906;2024-01-15T07:42:05;6.60;;;2.90;;
42030;SDS011;27709;52.036;5.906;2024-01-15T07:44:31;6.75;;;3.38;;
42030;SDS011;27709;52.036;5.906;2024-01-15T07:46:56;6.85;;;3.08;;
42030;SDS011;27709;52.036;5.906;2024-01-15T07:49:22;7.80;;;3.22;;
42030;SDS011;27709;52.036;5.906;2024-01-15T07:51:48;6.80;;;3.45;;
42030;SDS011;27709;52.036;5.906;2024-01-15T07:54:14;5.57;;;3.20;;
42030;SDS011;27709;52.036;5.906;2024-01-15T07:57:02;7.63;;;2.85;;
42030;SDS011;27709;52.036;5.906;2024-01-15T07:59:31;9.32;;;2.28;;
42030;SDS011;27709;52.036;5.906;2024-01-15T08:01:58;5.95;;;2.40;;
42030;SDS011;27709;52.036;5.906;2024-01-15T08:04:24;7.38;;;2.83;;
42030;SDS011;27709;52.036;5.906;2024-01-15T08:06:49;6.72;;;2.63;;
42030;SDS011;27709;52.036;5.906;2024-01-15T08:09:15;6.38;;;2.80;;
42030;SDS011;27709;52.036;5.906;2024-01-15T08:11:41;6.50;;;2.80;;
42030;SDS011;27709;52.036;5.906;2024-01-15T08:14:11;5.55;;;3.35;;
42030;SDS011;27709;52.036;5.906;2024-01-15T08:16:37;6.32;;;3.08;;
42030;SDS011;27709;52.036;5.906;2024-01-15T08:19:02;5.43;;;2.90;;
42030;SDS011;27709;52.036;5.906;2024-01-15T08:21:28;5.88;;;2.40;;
42030;SDS011;27709;52.036;5.906;2024-01-15T08:23:57;6.82;;;2.88;;
42030;SDS011;27709;52.036;5.906;2024-01-15T08:26:24;5.93;;;2.50;;
42030;SDS011;27709;52.036;5.906;2024-01-15T08:28:49;6.40;;;2.88;;
42030;SDS011;27709;52.036;5.906;2024-01-15T08:31:15;4.72;;;2.80;;
42030;SDS011;27709;52.036;5.906;2024-01-15T08:33:41;4.93;;;3.00;;
42030;SDS011;27709;52.036;5.906;2024-01-15T08:36:07;4.65;;;2.63;;
42030;SDS011;27709;52.036;5.906;2024-01-15T08:38:32;7.15;;;3.22;;
42030;SDS011;27709;52.036;5.906;2024-01-15T08:40:58;6.53;;;3.15;;
42030;SDS011;27709;52.036;5.906;2024-01-15T08:43:25;7.60;;;3.25;;
42030;SDS011;27709;52.036;5.906;2024-01-15T08:45:51;5.88;;;3.17;;
42030;SDS011;27709;52.036;5.906;2024-01-15T08:48:17;7.00;;;3.35;;
42030;SDS011;27709;52.036;5.906;2024-01-15T08:50:43;8.50;;;3.50;;
42030;SDS011;27709;52.036;5.906;2024-01-15T08:53:10;7.10;;;3.63;;
42030;SDS011;27709;52.036;5.906;2024-01-15T08:55:37;7.18;;;4.15;;
42030;SDS011;27709;52.036;5.906;2024-01-15T08:58:02;5.85;;;3.50;;
42030;SDS011;27709;52.036;5.906;2024-01-15T09:00:28;6.72;;;3.67;;
42030;SDS011;27709;52.036;5.906;2024-01-15T09:02:54;7.35;;;3.78;;
42030;SDS011;27709;52.036;5.906;2024-01-15T09:05:21;8.55;;;3.10;;
42030;SDS011;27709;52.036;5.906;2024-01-15T09:07:47;6.78;;;3.45;;
42030;SDS011;27709;52.036;5.906;2024-01-15T09:10:13;9.15;;;3.10;;
42030;SDS011;27709;52.036;5.906;2024-01-15T09:12:38;6.43;;;2.80;;
42030;SDS011;27709;52.036;5.906;2024-01-15T09:15:04;4.40;;;2.20;;
42030;SDS011;27709;52.036;5.906;2024-01-15T09:17:31;7.10;;;2.45;;
42030;SDS011;27709;52.036;5.906;2024-01-15T09:19:57;5.20;;;2.22;;
42030;SDS011;27709;52.036;5.906;2024-01-15T09:22:23;6.18;;;2.17;;
42030;SDS011;27709;52.036;5.906;2024-01-15T09:24:48;4.82;;;2.20;;
42030;SDS011;27709;52.036;5.906;2024-01-15T09:27:14;5.80;;;2.47;;
42030;SDS011;27709;52.036;5.906;2024-01-15T09:29:40;6.10;;;2.78;;
42030;SDS011;27709;52.036;5.906;2024-01-15T09:32:07;6.22;;;3.00;;
42030;SDS011;27709;52.036;5.906;2024-01-15T09:34:33;6.57;;;2.95;;
42030;SDS011;27709;52.036;5.906;2024-01-15T09:36:59;5.55;;;3.10;;
42030;SDS011;27709;52.036;5.906;2024-01-15T09:39:25;8.63;;;3.17;;
42030;SDS011;27709;52.036;5.906;2024-01-15T09:41:52;6.65;;;3.10;;
42030;SDS011;27709;52.036;5.906;2024-01-15T09:44:18;7.13;;;2.88;;
42030;SDS011;27709;52.036;5.906;2024-01-15T09:46:44;5.63;;;2.50;;
42030;SDS011;27709;52.036;5.906;2024-01-15T09:49:11;6.30;;;2.47;;
42030;SDS011;27709;52.036;5.906;2024-01-15T09:51:37;5.70;;;2.72;;
42030;SDS011;27709;52.036;5.906;2024-01-15T09:54:04;8.75;;;2.90;;
42030;SDS011;27709;52.036;5.906;2024-01-15T09:56:30;7.03;;;2.60;;
42030;SDS011;27709;52.036;5.906;2024-01-15T09:58:56;5.90;;;2.50;;
42030;SDS011;27709;52.036;5.906;2024-01-15T10:01:22;5.65;;;2.30;;
42030;SDS011;27709;52.036;5.906;2024-01-15T10:03:49;7.07;;;2.10;;
42030;SDS011;27709;52.036;5.906;2024-01-15T10:06:15;4.28;;;1.77;;
42030;SDS011;27709;52.036;5.906;2024-01-15T10:08:48;5.38;;;1.90;;
42030;SDS011;27709;52.036;5.906;2024-01-15T10:11:15;2.95;;;1.45;;
42030;SDS011;27709;52.036;5.906;2024-01-15T10:13:43;6.50;;;2.88;;
42030;SDS011;27709;52.036;5.906;2024-01-15T10:16:09;4.82;;;1.73;;
42030;SDS011;27709;52.036;5.906;2024-01-15T10:18:36;3.95;;;1.38;;
42030;SDS011;27709;52.036;5.906;2024-01-15T10:21:08;4.63;;;1.17;;
42030;SDS011;27709;52.036;5.906;2024-01-15T10:23:33;6.10;;;1.67;;
42030;SDS011;27709;52.036;5.906;2024-01-15T10:25:59;4.78;;;1.15;;
42030;SDS011;27709;52.036;5.906;2024-01-15T10:28:28;4.13;;;0.80;;
42030;SDS011;27709;52.036;5.906;2024-01-15T10:30:57;3.25;;;0.75;;
42030;SDS011;27709;52.036;5.906;2024-01-15T10:33:26;3.40;;;0.80;;
42030;SDS011;27709;52.036;5.906;2024-01-15T10:35:55;2.92;;;0.70;;
42030;SDS011;27709;52.036;5.906;2024-01-15T10:38:22;2.10;;;0.80;;
42030;SDS011;27709;52.036;5.906;2024-01-15T10:40:53;3.30;;;0.70;;
42030;SDS011;27709;52.036;5.906;2024-01-15T10:43:20;2.47;;;0.70;;
42030;SDS011;27709;52.036;5.906;2024-01-15T10:45:46;2.38;;;0.75;;
42030;SDS011;27709;52.036;5.906;2024-01-15T10:48:17;5.53;;;0.80;;
42030;SDS011;27709;52.036;5.906;2024-01-15T10:50:44;3.17;;;0.80;;
42030;SDS011;27709;52.036;5.906;2024-01-15T10:53:11;4.88;;;0.88;;
42030;SDS011;27709;52.036;5.906;2024-01-15T10:55:38;2.33;;;0.70;;
42030;SDS011;27709;52.036;5.906;2024-01-15T10:58:06;4.43;;;0.98;;
42030;SDS011;27709;52.036;5.906;2024-01-15T11:00:32;4.85;;;1.13;;
42030;SDS011;27709;52.036;5.906;2024-01-15T11:03:00;4.93;;;0.95;;
42030;SDS011;27709;52.036;5.906;2024-01-15T11:05:27;4.53;;;1.08;;
42030;SDS011;27709;52.036;5.906;2024-01-15T11:07:55;5.45;;;1.02;;
42030;SDS011;27709;52.036;5.906;2024-01-15T11:13:13;2.97;;;1.10;;
42030;SDS011;27709;52.036;5.906;2024-01-15T11:16:01;6.95;;;1.90;;
42030;SDS011;27709;52.036;5.906;2024-01-15T11:18:33;5.63;;;2.03;;
42030;SDS011;27709;52.036;5.906;2024-01-15T11:23:43;5.80;;;2.10;;
42030;SDS011;27709;52.036;5.906;2024-01-15T11:28:59;7.30;;;2.58;;
42030;SDS011;27709;52.036;5.906;2024-01-15T11:31:27;6.55;;;1.50;;
42030;SDS011;27709;52.036;5.906;2024-01-15T11:33:53;4.43;;;1.17;;
42030;SDS011;27709;52.036;5.906;2024-01-15T11:36:23;6.45;;;1.40;;
42030;SDS011;27709;52.036;5.906;2024-01-15T11:42:00;4.07;;;1.00;;
42030;SDS011;27709;52.036;5.906;2024-01-15T11:44:27;6.68;;;1.10;;
42030;SDS011;27709;52.036;5.906;2024-01-15T11:47:03;4.25;;;1.10;;
42030;SDS011;27709;52.036;5.906;2024-01-15T11:52:11;6.97;;;1.35;;
42030;SDS011;27709;52.036;5.906;2024-01-15T11:54:39;5.10;;;0.80;;
42030;SDS011;27709;52.036;5.906;2024-01-15T11:57:09;6.53;;;1.17;;
42030;SDS011;27709;52.036;5.906;2024-01-15T11:59:38;7.03;;;1.13;;
42030;SDS011;27709;52.036;5.906;2024-01-15T12:02:04;4.97;;;1.00;;
42030;SDS011;27709;52.036;5.906;2024-01-15T12:04:30;5.05;;;0.85;;
42030;SDS011;27709;52.036;5.906;2024-01-15T12:06:55;3.75;;;0.80;;
42030;SDS011;27709;52.036;5.906;2024-01-15T12:09:21;5.88;;;0.80;;
42030;SDS011;27709;52.036;5.906;2024-01-15T12:11:58;7.15;;;0.85;;
42030;SDS011;27709;52.036;5.906;2024-01-15T12:14:32;5.68;;;1.00;;
42030;SDS011;27709;52.036;5.906;2024-01-15T12:16:59;3.58;;;0.80;;
42030;SDS011;27709;52.036;5.906;2024-01-15T12:19:25;7.60;;;0.90;;
42030;SDS011;27709;52.036;5.906;2024-01-15T12:21:51;5.80;;;0.88;;
42030;SDS011;27709;52.036;5.906;2024-01-15T12:24:17;5.05;;;0.70;;
42030;SDS011;27709;52.036;5.906;2024-01-15T12:26:42;5.85;;;0.88;;
42030;SDS011;27709;52.036;5.906;2024-01-15T12:29:10;5.50;;;0.82;;
42030;SDS011;27709;52.036;5.906;2024-01-15T12:31:36;5.70;;;0.73;;
42030;SDS011;27709;52.036;5.906;2024-01-15T12:34:05;5.75;;;0.80;;
42030;SDS011;27709;52.036;5.906;2024-01-15T12:36:31;5.80;;;0.73;;
42030;SDS011;27709;52.036;5.906;2024-01-15T12:38:59;4.70;;;0.68;;
42030;SDS011;27709;52.036;5.906;2024-01-15T12:41:25;5.22;;;0.60;;
42030;SDS011;27709;52.036;5.906;2024-01-15T12:43:50;3.22;;;0.47;;
42030;SDS011;27709;52.036;5.906;2024-01-15T12:46:16;2.78;;;0.55;;
42030;SDS011;27709;52.036;5.906;2024-01-15T12:48:42;1.45;;;0.40;;
42030;SDS011;27709;52.036;5.906;2024-01-15T12:51:08;3.00;;;0.40;;
42030;SDS011;27709;52.036;5.906;2024-01-15T12:53:33;1.35;;;0.30;;
42030;SDS011;27709;52.036;5.906;2024-01-15T12:55:59;3.03;;;0.30;;
42030;SDS011;27709;52.036;5.906;2024-01-15T12:58:26;3.13;;;0.47;;
42030;SDS011;27709;52.036;5.906;2024-01-15T13:00:52;3.30;;;0.38;;
42030;SDS011;27709;52.036;5.906;2024-01-15T13:03:18;3.03;;;0.50;;
42030;SDS011;27709;52.036;5.906;2024-01-15T13:05:43;3.33;;;0.47;;
42030;SDS011;27709;52.036;5.906;2024-01-15T13:08:10;1.60;;;0.35;;
42030;SDS011;27709;52.036;5.906;2024-01-15T13:10:35;2.25;;;0.38;;
42030;SDS011;27709;52.036;5.906;2024-01-15T13:13:01;3.42;;;0.50;;
42030;SDS011;27709;52.036;5.906;2024-01-15T13:15:28;3.03;;;0.70;;
42030;SDS011;27709;52.036;5.906;2024-01-15T13:17:53;4.68;;;0.70;;
42030;SDS011;27709;52.036;5.906;2024-01-15T13:20:19;2.92;;;0.40;;
42030;SDS011;27709;52.036;5.906;2024-01-15T13:22:45;2.30;;;0.40;;
42030;SDS011;27709;52.036;5.906;2024-01-15T13:25:10;5.53;;;0.60;;
42030;SDS011;27709;52.036;5.906;2024-01-15T13:27:36;3.28;;;0.50;;
42030;SDS011;27709;52.036;5.906;2024-01-15T13:30:02;5.05;;;0.50;;
42030;SDS011;27709;52.036;5.906;2024-01-15T13:32:29;7.38;;;0.47;;
42030;SDS011;27709;52.036;5.906;2024-01-15T13:34:55;4.68;;;0.60;;
42030;SDS011;27709;52.036;5.906;2024-01-15T13:37:21;4.95;;;0.60;;
42030;SDS011;27709;52.036;5.906;2024-01-15T13:39:49;4.50;;;0.40;;
42030;SDS011;27709;52.036;5.906;2024-01-15T13:42:16;2.28;;;0.50;;
42030;SDS011;27709;52.036;5.906;2024-01-15T13:44:42;2.58;;;0.50;;
42030;SDS011;27709;52.036;5.906;2024-01-15T13:47:08;4.70;;;0.47;;
42030;SDS011;27709;52.036;5.906;2024-01-15T13:49:34;2.67;;;0.60;;
42030;SDS011;27709;52.036;5.906;2024-01-15T13:52:00;4.13;;;0.50;;
42030;SDS011;27709;52.036;5.906;2024-01-15T13:54:28;5.07;;;0.50;;
42030;SDS011;27709;52.036;5.906;2024-01-15T13:56:55;5.50;;;0.52;;
42030;SDS011;27709;52.036;5.906;2024-01-15T13:59:21;5.20;;;0.70;;
42030;SDS011;27709;52.036;5.906;2024-01-15T14:01:46;5.07;;;0.52;;
42030;SDS011;27709;52.036;5.906;2024-01-15T14:04:12;3.58;;;0.82;;
42030;SDS011;27709;52.036;5.906;2024-01-15T14:06:38;7.40;;;0.85;;
42030;SDS011;27709;52.036;5.906;2024-01-15T14:09:04;5.40;;;0.57;;
42030;SDS011;27709;52.036;5.906;2024-01-15T14:11:30;4.65;;;0.95;;
42030;SDS011;27709;52.036;5.906;2024-01-15T14:13:55;5.50;;;0.80;;
42030;SDS011;27709;52.036;5.906;2024-01-15T14:16:21;6.07;;;0.80;;
42030;SDS011;27709;52.036;5.906;2024-01-15T14:18:47;4.40;;;0.75;;
42030;SDS011;27709;52.036;5.906;2024-01-15T14:21:13;5.28;;;0.60;;
42030;SDS011;27709;52.036;5.906;2024-01-15T14:23:39;5.45;;;0.50;;
42030;SDS011;27709;52.036;5.906;2024-01-15T14:26:05;6.32;;;0.60;;
42030;SDS011;27709;52.036;5.906;2024-01-15T14:28:30;4.80;;;0.55;;
42030;SDS011;27709;52.036;5.906;2024-01-15T14:30:56;6.28;;;0.50;;
42030;SDS011;27709;52.036;5.906;2024-01-15T14:33:24;4.30;;;0.40;;
42030;SDS011;27709;52.036;5.906;2024-01-15T14:35:49;4.03;;;0.50;;
42030;SDS011;27709;52.036;5.906;2024-01-15T14:38:16;2.67;;;0.43;;
42030;SDS011;27709;52.036;5.906;2024-01-15T14:40:41;2.10;;;0.40;;
42030;SDS011;27709;52.036;5.906;2024-01-15T14:43:09;3.42;;;0.47;;
42030;SDS011;27709;52.036;5.906;2024-01-15T14:45:34;5.38;;;0.50;;
42030;SDS011;27709;52.036;5.906;2024-01-15T14:48:00;2.63;;;0.40;;
42030;SDS011;27709;52.036;5.906;2024-01-15T14:50:26;5.57;;;0.70;;
42030;SDS011;27709;52.036;5.906;2024-01-15T14:52:51;4.30;;;0.50;;
42030;SDS011;27709;52.036;5.906;2024-01-15T14:55:17;4.35;;;0.55;;